Time,TemperatureF,DewpointF,PressureIn,WindDirection,WindDirectionDegrees,WindSpeedMPH,WindSpeedGustMPH,Humidity,HourlyPrecipIn,Conditions,Clouds,dailyrainin,SolarRadiationWatts/m^2,SoftwareType,DateUTC
2013-07-13 00:02:00,56.3,23.6,29.82,WNW,302,10.0,16.0,28,0.00,,,0.00,0,WeatherCatV1.15B25,2013-07-13 07:02:00,
2013-07-13 00:07:00,56.3,22.8,29.82,NW,307,11.0,14.0,27,0.00,,,0.00,0,WeatherCatV1.15B25,2013-07-13 07:07:00,
2013-07-13 00:12:00,56.5,22.9,29.82,West,276,9.0,14.0,27,0.00,,,0.00,0,WeatherCatV1.15B25,2013-07-13 07:12:00,
2013-07-13 00:17:00,56.5,22.0,29.81,NW,318,5.0,15.0,26,0.00,,,0.00,0,WeatherCatV1.15B25,2013-07-13 07:17:00,
2013-07-13 00:22:00,56.6,21.2,29.81,WNW,288,14.0,17.0,25,0.00,,,0.00,0,WeatherCatV1.15B25,2013-07-13 07:22:00,
2013-07-13 00:27:00,56.7,21.3,29.81,WNW,293,7.0,15.0,25,0.00,,,0.00,0,WeatherCatV1.15B25,2013-07-13 07:27:00,
2013-07-13 00:32:00,56.9,20.5,29.80,WNW,283,8.0,13.0,24,0.00,,,0.00,0,WeatherCatV1.15B25,2013-07-13 07:32:00,
2013-07-13 00:37:00,57.2,20.7,29.80,WNW,297,10.0,19.0,24,0.00,,,0.00,0,WeatherCatV1.15B25,2013-07-13 07:37:00,
2013-07-13 00:42:00,57.3,20.8,29.80,WNW,293,11.0,13.0,24,0.00,,,0.00,0,WeatherCatV1.15B25,2013-07-13 07:42:00,
2013-07-13 00:47:00,57.5,21.0,29.79,NW,312,15.0,17.0,24,0.00,,,0.00,0,WeatherCatV1.15B25,2013-07-13 07:47:00,
2013-07-13 00:52:00,57.8,24.0,29.79,NW,319,11.0,17.0,27,0.00,,,0.00,0,WeatherCatV1.15B25,2013-07-13 07:52:00,
2013-07-13 00:57:00,57.8,21.3,29.79,WNW,301,4.0,10.0,24,0.00,,,0.00,0,WeatherCatV1.15B25,2013-07-13 07:57:00,
2013-07-13 01:02:00,57.6,22.0,29.79,WNW,293,15.0,15.0,25,0.00,,,0.00,0,WeatherCatV1.15B25,2013-07-13 08:02:00,
2013-07-13 01:07:00,57.6,22.0,29.79,NNW,336,10.0,17.0,25,0.00,,,0.00,0,WeatherCatV1.15B25,2013-07-13 08:07:00,
2013-07-13 01:12:00,58.0,21.4,29.79,NW,305,10.0,15.0,24,0.00,,,0.00,0,WeatherCatV1.15B25,2013-07-13 08:12:00,
2013-07-13 01:17:00,58.0,22.4,29.79,WNW,300,11.0,16.0,25,0.00,,,0.00,0,WeatherCatV1.15B25,2013-07-13 08:17:00,
2013-07-13 01:22:00,58.1,19.5,29.79,NW,314,13.0,18.0,22,0.00,,,0.00,0,WeatherCatV1.15B25,2013-07-13 08:22:00,
2013-07-13 01:27:00,58.1,21.5,29.79,WNW,293,11.0,15.0,24,0.00,,,0.00,0,WeatherCatV1.15B25,2013-07-13 08:27:00,
2013-07-13 01:32:00,58.0,21.4,29.79,WNW,297,9.0,17.0,24,0.00,,,0.00,0,WeatherCatV1.15B25,2013-07-13 08:32:00,
2013-07-13 01:37:00,57.6,23.0,29.79,NW,310,7.0,14.0,26,0.00,,,0.00,0,WeatherCatV1.15B25,2013-07-13 08:37:00,
2013-07-13 01:42:00,57.5,22.0,29.79,WNW,283,12.0,14.0,25,0.00,,,0.00,0,WeatherCatV1.15B25,2013-07-13 08:42:00,
2013-07-13 01:47:00,57.2,22.6,29.79,WNW,303,4.0,13.0,26,0.00,,,0.00,0,WeatherCatV1.15B25,2013-07-13 08:47:00,
2013-07-13 01:52:00,57.0,21.5,29.79,NW,307,5.0,8.0,25,0.00,,,0.00,0,WeatherCatV1.15B25,2013-07-13 08:52:00,
2013-07-13 01:57:00,56.9,21.5,29.79,NNW,338,3.0,6.0,25,0.00,,,0.00,0,WeatherCatV1.15B25,2013-07-13 08:57:00,
2013-07-13 02:02:00,56.6,21.2,29.79,WNW,293,2.0,9.0,25,0.00,,,0.00,0,WeatherCatV1.15B25,2013-07-13 09:02:00,
2013-07-13 02:07:00,56.5,20.2,29.79,NW,311,8.0,11.0,24,0.00,,,0.00,0,WeatherCatV1.15B25,2013-07-13 09:07:00,
2013-07-13 02:12:00,56.3,20.0,29.79,WNW,298,0.0,4.0,24,0.00,,,0.00,0,WeatherCatV1.15B25,2013-07-13 09:12:00,
2013-07-13 02:17:00,56.2,18.9,29.79,WSW,252,4.0,6.0,23,0.00,,,0.00,0,WeatherCatV1.15B25,2013-07-13 09:17:00,
2013-07-13 02:22:00,56.2,19.9,29.79,NW,304,2.0,12.0,24,0.00,,,0.00,0,WeatherCatV1.15B25,2013-07-13 09:22:00,
2013-07-13 02:27:00,56.0,16.6,29.79,WNW,297,3.0,14.0,21,0.00,,,0.00,0,WeatherCatV1.15B25,2013-07-13 09:27:00,
2013-07-13 02:32:00,56.0,18.7,29.79,WNW,288,5.0,12.0,23,0.00,,,0.00,0,WeatherCatV1.15B25,2013-07-13 09:32:00,
2013-07-13 02:37:00,56.0,17.7,29.79,NW,308,7.0,13.0,22,0.00,,,0.00,0,WeatherCatV1.15B25,2013-07-13 09:37:00,
2013-07-13 02:42:00,56.0,19.7,29.79,WNW,297,5.0,11.0,24,0.00,,,0.00,0,WeatherCatV1.15B25,2013-07-13 09:42:00,
2013-07-13 02:47:00,55.7,19.5,29.79,NW,314,4.0,10.0,24,0.00,,,0.00,0,WeatherCatV1.15B25,2013-07-13 09:47:00,
2013-07-13 02:52:00,55.4,20.2,29.79,WNW,288,8.0,10.0,25,0.00,,,0.00,0,WeatherCatV1.15B25,2013-07-13 09:52:00,
2013-07-13 02:57:00,55.1,20.8,29.79,WNW,293,7.0,9.0,26,0.00,,,0.00,0,WeatherCatV1.15B25,2013-07-13 09:57:00,
2013-07-13 03:02:00,54.8,20.6,29.80,NW,309,7.0,9.0,26,0.00,,,0.00,0,WeatherCatV1.15B25,2013-07-13 10:02:00,
2013-07-13 03:07:00,54.7,19.6,29.80,WNW,293,6.0,10.0,25,0.00,,,0.00,0,WeatherCatV1.15B25,2013-07-13 10:07:00,
2013-07-13 03:12:00,54.7,19.6,29.80,West,270,2.0,10.0,25,0.00,,,0.00,0,WeatherCatV1.15B25,2013-07-13 10:12:00,
2013-07-13 03:17:00,54.5,20.3,29.82,WNW,283,0.0,4.0,26,0.00,,,0.00,0,WeatherCatV1.15B25,2013-07-13 10:17:00,
2013-07-13 03:22:00,54.4,20.2,29.82,WNW,293,4.0,4.0,26,0.00,,,0.00,0,WeatherCatV1.15B25,2013-07-13 10:22:00,
2013-07-13 03:27:00,54.2,20.1,29.82,WNW,293,0.0,1.0,26,0.00,,,0.00,0,WeatherCatV1.15B25,2013-07-13 10:27:00,
2013-07-13 03:32:00,54.1,20.0,29.82,WNW,293,2.0,2.0,26,0.00,,,0.00,0,WeatherCatV1.15B25,2013-07-13 10:32:00,
2013-07-13 03:37:00,54.1,20.0,29.82,West,271,0.0,2.0,26,0.00,,,0.00,0,WeatherCatV1.15B25,2013-07-13 10:37:00,
2013-07-13 03:42:00,53.9,19.8,29.82,West,271,0.0,0.0,26,0.00,,,0.00,0,WeatherCatV1.15B25,2013-07-13 10:42:00,
2013-07-13 03:47:00,53.8,19.7,29.82,West,271,0.0,2.0,26,0.00,,,0.00,0,WeatherCatV1.15B25,2013-07-13 10:47:00,
2013-07-13 03:52:00,53.6,20.4,29.82,West,271,0.0,1.0,27,0.00,,,0.00,0,WeatherCatV1.15B25,2013-07-13 10:52:00,
2013-07-13 03:57:00,53.8,19.7,29.82,NW,326,2.0,4.0,26,0.00,,,0.00,0,WeatherCatV1.15B25,2013-07-13 10:57:00,
2013-07-13 04:02:00,53.9,19.8,29.82,NW,326,0.0,4.0,26,0.00,,,0.00,0,WeatherCatV1.15B25,2013-07-13 11:02:00,
2013-07-13 04:07:00,53.9,19.8,29.82,NW,326,0.0,0.0,26,0.00,,,0.00,0,WeatherCatV1.15B25,2013-07-13 11:07:00,
2013-07-13 04:12:00,53.8,20.6,29.82,NW,326,0.0,4.0,27,0.00,,,0.00,0,WeatherCatV1.15B25,2013-07-13 11:12:00,
2013-07-13 04:17:00,53.6,20.4,29.82,NW,326,0.0,3.0,27,0.00,,,0.00,0,WeatherCatV1.15B25,2013-07-13 11:17:00,
2013-07-13 04:22:00,53.3,19.3,29.82,NW,325,0.0,4.0,26,0.00,,,0.00,0,WeatherCatV1.15B25,2013-07-13 11:22:00,
2013-07-13 04:27:00,53.3,19.3,29.82,NW,325,0.0,1.0,26,0.00,,,0.00,0,WeatherCatV1.15B25,2013-07-13 11:27:00,
2013-07-13 04:32:00,53.1,19.1,29.83,NW,324,3.0,3.0,26,0.00,,,0.00,0,WeatherCatV1.15B25,2013-07-13 11:32:00,
2013-07-13 04:37:00,52.9,18.1,29.83,NW,324,2.0,3.0,25,0.00,,,0.00,0,WeatherCatV1.15B25,2013-07-13 11:37:00,
2013-07-13 04:42:00,52.8,19.8,29.83,NW,324,0.0,1.0,27,0.00,,,0.00,0,WeatherCatV1.15B25,2013-07-13 11:42:00,
2013-07-13 04:47:00,52.6,20.4,29.83,NW,324,0.0,3.0,28,0.00,,,0.00,0,WeatherCatV1.15B25,2013-07-13 11:47:00,
2013-07-13 04:52:00,52.8,21.4,29.83,NW,324,0.0,0.0,29,0.00,,,0.00,0,WeatherCatV1.15B25,2013-07-13 11:52:00,
2013-07-13 04:57:00,52.8,21.4,29.83,NW,323,0.0,1.0,29,0.00,,,0.00,0,WeatherCatV1.15B25,2013-07-13 11:57:00,
2013-07-13 05:02:00,52.8,20.6,29.83,NW,323,3.0,4.0,28,0.00,,,0.00,0,WeatherCatV1.15B25,2013-07-13 12:02:00,
2013-07-13 05:07:00,52.9,19.8,29.83,NW,323,2.0,3.0,27,0.00,,,0.00,0,WeatherCatV1.15B25,2013-07-13 12:07:00,
2013-07-13 05:12:00,52.9,18.1,29.83,WNW,293,2.0,5.0,25,0.00,,,0.00,0,WeatherCatV1.15B25,2013-07-13 12:12:00,
2013-07-13 05:17:00,53.2,16.4,29.83,WNW,293,1.0,1.0,23,0.00,,,0.00,0,WeatherCatV1.15B25,2013-07-13 12:17:00,
2013-07-13 05:22:00,53.5,17.6,29.83,WNW,293,0.0,1.0,24,0.00,,,0.00,0,WeatherCatV1.15B25,2013-07-13 12:22:00,
2013-07-13 05:27:00,53.5,17.6,29.83,WNW,293,1.0,3.0,24,0.00,,,0.00,0,WeatherCatV1.15B25,2013-07-13 12:27:00,
2013-07-13 05:32:00,53.8,16.9,29.82,WNW,293,0.0,4.0,23,0.00,,,0.00,0,WeatherCatV1.15B25,2013-07-13 12:32:00,
2013-07-13 05:37:00,53.9,17.0,29.82,WNW,293,4.0,7.0,23,0.00,,,0.00,0,WeatherCatV1.15B25,2013-07-13 12:37:00,
2013-07-13 05:42:00,54.1,17.1,29.82,WNW,283,6.0,6.0,23,0.00,,,0.00,0,WeatherCatV1.15B25,2013-07-13 12:42:00,
2013-07-13 05:47:00,54.4,17.4,29.83,West,278,3.0,4.0,23,0.00,,,0.00,0,WeatherCatV1.15B25,2013-07-13 12:47:00,
2013-07-13 05:52:00,54.5,17.5,29.83,West,277,0.0,1.0,23,0.00,,,0.00,5,WeatherCatV1.15B25,2013-07-13 12:52:00,
2013-07-13 05:57:00,54.5,17.5,29.83,West,277,2.0,2.0,23,0.00,,,0.00,7,WeatherCatV1.15B25,2013-07-13 12:57:00,
2013-07-13 06:02:00,54.5,19.4,29.83,West,277,0.0,1.0,25,0.00,,,0.00,11,WeatherCatV1.15B25,2013-07-13 13:02:00,
2013-07-13 06:07:00,54.5,20.3,29.83,WNW,288,0.0,0.0,26,0.00,,,0.00,12,WeatherCatV1.15B25,2013-07-13 13:07:00,
2013-07-13 06:12:00,54.5,20.3,29.83,WNW,288,0.0,2.0,26,0.00,,,0.00,14,WeatherCatV1.15B25,2013-07-13 13:12:00,
2013-07-13 06:17:00,54.4,20.2,29.84,WNW,288,0.0,0.0,26,0.00,,,0.00,16,WeatherCatV1.15B25,2013-07-13 13:17:00,
2013-07-13 06:22:00,54.4,21.1,29.84,WNW,288,0.0,2.0,27,0.00,,,0.00,19,WeatherCatV1.15B25,2013-07-13 13:22:00,
2013-07-13 06:27:00,54.2,21.8,29.84,WNW,288,0.0,1.0,28,0.00,,,0.00,42,WeatherCatV1.15B25,2013-07-13 13:27:00,
2013-07-13 06:32:00,54.2,21.0,29.84,WNW,288,0.0,0.0,27,0.00,,,0.00,54,WeatherCatV1.15B25,2013-07-13 13:32:00,
2013-07-13 06:37:00,54.2,18.2,29.84,WNW,288,0.0,0.0,24,0.00,,,0.00,67,WeatherCatV1.15B25,2013-07-13 13:37:00,
2013-07-13 06:42:00,54.2,21.8,29.84,WNW,288,2.0,3.0,28,0.00,,,0.00,81,WeatherCatV1.15B25,2013-07-13 13:42:00,
2013-07-13 06:47:00,54.4,22.0,29.85,WNW,288,2.0,3.0,28,0.00,,,0.00,97,WeatherCatV1.15B25,2013-07-13 13:47:00,
2013-07-13 06:52:00,54.4,21.1,29.85,WNW,288,1.0,3.0,27,0.00,,,0.00,111,WeatherCatV1.15B25,2013-07-13 13:52:00,
2013-07-13 06:57:00,54.4,17.4,29.85,WNW,293,2.0,5.0,23,0.00,,,0.00,125,WeatherCatV1.15B25,2013-07-13 13:57:00,
2013-07-13 07:02:00,54.5,16.5,29.85,WNW,293,0.0,1.0,22,0.00,,,0.00,137,WeatherCatV1.15B25,2013-07-13 14:02:00,
2013-07-13 07:07:00,54.7,14.4,29.85,WNW,297,1.0,5.0,20,0.00,,,0.00,151,WeatherCatV1.15B25,2013-07-13 14:07:00,
2013-07-13 07:12:00,55.1,14.8,29.85,WNW,297,0.0,3.0,20,0.00,,,0.00,169,WeatherCatV1.15B25,2013-07-13 14:12:00,
2013-07-13 07:17:00,55.6,20.3,29.88,WNW,283,5.0,6.0,25,0.00,,,0.00,183,WeatherCatV1.15B25,2013-07-13 14:17:00,
2013-07-13 07:22:00,55.7,20.4,29.88,WNW,293,5.0,6.0,25,0.00,,,0.00,199,WeatherCatV1.15B25,2013-07-13 14:22:00,
2013-07-13 07:27:00,55.7,21.4,29.88,WNW,293,5.0,7.0,26,0.00,,,0.00,216,WeatherCatV1.15B25,2013-07-13 14:27:00,
2013-07-13 07:32:00,55.7,21.4,29.88,WNW,300,6.0,7.0,26,0.00,,,0.00,234,WeatherCatV1.15B25,2013-07-13 14:32:00,
2013-07-13 07:37:00,55.7,22.2,29.88,WNW,297,5.0,7.0,27,0.00,,,0.00,248,WeatherCatV1.15B25,2013-07-13 14:37:00,
2013-07-13 07:42:00,55.6,22.2,29.88,WNW,293,4.0,7.0,27,0.00,,,0.00,265,WeatherCatV1.15B25,2013-07-13 14:42:00,
2013-07-13 07:47:00,55.7,21.4,29.89,WNW,299,7.0,8.0,26,0.00,,,0.00,281,WeatherCatV1.15B25,2013-07-13 14:47:00,
2013-07-13 07:52:00,55.9,18.7,29.89,WNW,303,6.0,7.0,23,0.00,,,0.00,299,WeatherCatV1.15B25,2013-07-13 14:52:00,
2013-07-13 07:57:00,56.0,17.7,29.89,NW,305,6.0,8.0,22,0.00,,,0.00,316,WeatherCatV1.15B25,2013-07-13 14:57:00,
2013-07-13 08:02:00,56.5,15.9,29.90,WNW,303,6.0,9.0,20,0.00,,,0.00,332,WeatherCatV1.15B25,2013-07-13 15:02:00,
2013-07-13 08:07:00,56.9,15.1,29.90,WNW,288,7.0,7.0,19,0.00,,,0.00,350,WeatherCatV1.15B25,2013-07-13 15:07:00,
2013-07-13 08:12:00,57.2,16.5,29.90,WNW,300,6.0,9.0,20,0.00,,,0.00,364,WeatherCatV1.15B25,2013-07-13 15:12:00,
2013-07-13 08:17:00,57.5,15.6,29.92,WNW,297,5.0,9.0,19,0.00,,,0.00,381,WeatherCatV1.15B25,2013-07-13 15:17:00,
2013-07-13 08:22:00,57.8,17.0,29.92,NW,307,6.0,9.0,20,0.00,,,0.00,397,WeatherCatV1.15B25,2013-07-13 15:22:00,
2013-07-13 08:27:00,58.1,17.3,29.92,WNW,283,6.0,7.0,20,0.00,,,0.00,415,WeatherCatV1.15B25,2013-07-13 15:27:00,
2013-07-13 08:32:00,58.4,18.6,29.91,WNW,303,6.0,6.0,21,0.00,,,0.00,432,WeatherCatV1.15B25,2013-07-13 15:32:00,
2013-07-13 08:37:00,58.6,16.5,29.91,WNW,303,4.0,7.0,19,0.00,,,0.00,448,WeatherCatV1.15B25,2013-07-13 15:37:00,
2013-07-13 08:42:00,58.7,16.6,29.91,West,267,2.0,7.0,19,0.00,,,0.00,464,WeatherCatV1.15B25,2013-07-13 15:42:00,
2013-07-13 08:47:00,59.0,18.0,29.92,WNW,297,5.0,7.0,20,0.00,,,0.00,478,WeatherCatV1.15B25,2013-07-13 15:47:00,
2013-07-13 08:52:00,59.2,21.4,29.92,WNW,293,11.0,12.0,23,0.00,,,0.00,494,WeatherCatV1.15B25,2013-07-13 15:52:00,
2013-07-13 08:57:00,59.3,18.2,29.92,NW,308,7.0,7.0,20,0.00,,,0.00,510,WeatherCatV1.15B25,2013-07-13 15:57:00,
2013-07-13 09:02:00,59.5,17.2,29.92,NW,306,7.0,9.0,19,0.00,,,0.00,526,WeatherCatV1.15B25,2013-07-13 16:02:00,
2013-07-13 09:07:00,59.8,19.8,29.92,West,268,4.0,6.0,21,0.00,,,0.00,541,WeatherCatV1.15B25,2013-07-13 16:07:00,
2013-07-13 09:12:00,59.9,21.0,29.92,WNW,300,5.0,10.0,22,0.00,,,0.00,557,WeatherCatV1.15B25,2013-07-13 16:12:00,
2013-07-13 09:17:00,60.1,22.2,29.91,West,262,3.0,9.0,23,0.00,,,0.00,573,WeatherCatV1.15B25,2013-07-13 16:17:00,
2013-07-13 09:22:00,60.2,20.1,29.91,WNW,301,3.0,8.0,21,0.00,,,0.00,585,WeatherCatV1.15B25,2013-07-13 16:22:00,
2013-07-13 09:27:00,60.4,20.3,29.91,WNW,297,6.0,10.0,21,0.00,,,0.00,601,WeatherCatV1.15B25,2013-07-13 16:27:00,
2013-07-13 09:32:00,60.5,18.0,29.92,WNW,288,3.0,6.0,19,0.00,,,0.00,615,WeatherCatV1.15B25,2013-07-13 16:32:00,
2013-07-13 09:37:00,60.7,20.5,29.92,WNW,293,2.0,5.0,21,0.00,,,0.00,629,WeatherCatV1.15B25,2013-07-13 16:37:00,
2013-07-13 09:42:00,60.9,15.8,29.92,WNW,283,2.0,7.0,17,0.00,,,0.00,645,WeatherCatV1.15B25,2013-07-13 16:42:00,
2013-07-13 09:47:00,61.0,18.5,29.92,WNW,283,6.0,9.0,19,0.00,,,0.00,659,WeatherCatV1.15B25,2013-07-13 16:47:00,
2013-07-13 09:52:00,61.2,14.7,29.92,WNW,303,6.0,9.0,16,0.00,,,0.00,673,WeatherCatV1.15B25,2013-07-13 16:52:00,
2013-07-13 09:57:00,61.5,13.4,29.92,NW,313,5.0,9.0,15,0.00,,,0.00,684,WeatherCatV1.15B25,2013-07-13 16:57:00,
2013-07-13 10:02:00,61.8,19.1,29.90,West,272,3.0,5.0,19,0.00,,,0.00,696,WeatherCatV1.15B25,2013-07-13 17:02:00,
2013-07-13 10:07:00,62.1,18.1,29.90,WNW,297,1.0,5.0,18,0.00,,,0.00,708,WeatherCatV1.15B25,2013-07-13 17:07:00,
2013-07-13 10:12:00,62.4,18.3,29.90,West,273,6.0,12.0,18,0.00,,,0.00,722,WeatherCatV1.15B25,2013-07-13 17:12:00,
2013-07-13 10:17:00,62.6,17.2,29.90,WNW,293,4.0,11.0,17,0.00,,,0.00,737,WeatherCatV1.15B25,2013-07-13 17:17:00,
2013-07-13 10:22:00,62.6,21.0,29.90,NW,307,6.0,10.0,20,0.00,,,0.00,749,WeatherCatV1.15B25,2013-07-13 17:22:00,
2013-07-13 10:27:00,62.6,17.2,29.90,WNW,300,10.0,12.0,17,0.00,,,0.00,758,WeatherCatV1.15B25,2013-07-13 17:27:00,
2013-07-13 10:32:00,62.6,21.0,29.90,NW,312,5.0,6.0,20,0.00,,,0.00,770,WeatherCatV1.15B25,2013-07-13 17:32:00,
2013-07-13 10:37:00,62.9,20.0,29.90,WSW,256,5.0,11.0,19,0.00,,,0.00,782,WeatherCatV1.15B25,2013-07-13 17:37:00,
2013-07-13 10:42:00,63.2,19.0,29.90,WNW,293,7.0,7.0,18,0.00,,,0.00,793,WeatherCatV1.15B25,2013-07-13 17:42:00,
2013-07-13 10:47:00,63.4,20.4,29.90,WNW,293,9.0,11.0,19,0.00,,,0.00,803,WeatherCatV1.15B25,2013-07-13 17:47:00,
2013-07-13 10:52:00,63.5,20.5,29.90,West,276,4.0,7.0,19,0.00,,,0.00,814,WeatherCatV1.15B25,2013-07-13 17:52:00,
2013-07-13 10:57:00,63.7,18.1,29.90,WNW,293,4.0,11.0,17,0.00,,,0.00,826,WeatherCatV1.15B25,2013-07-13 17:57:00,
2013-07-13 11:02:00,63.9,20.8,29.90,WNW,288,7.0,11.0,19,0.00,,,0.00,835,WeatherCatV1.15B25,2013-07-13 18:02:00,
2013-07-13 11:07:00,64.0,18.3,29.90,NNW,341,2.0,11.0,17,0.00,,,0.00,844,WeatherCatV1.15B25,2013-07-13 18:07:00,
2013-07-13 11:12:00,64.0,19.7,29.90,West,268,2.0,10.0,18,0.00,,,0.00,851,WeatherCatV1.15B25,2013-07-13 18:12:00,
2013-07-13 11:17:00,64.2,22.3,29.90,WNW,288,10.0,11.0,20,0.00,,,0.00,861,WeatherCatV1.15B25,2013-07-13 18:17:00,
2013-07-13 11:22:00,64.5,22.5,29.90,WNW,288,2.0,8.0,20,0.00,,,0.00,872,WeatherCatV1.15B25,2013-07-13 18:22:00,
2013-07-13 11:27:00,65.0,25.2,29.90,West,267,6.0,11.0,22,0.00,,,0.00,879,WeatherCatV1.15B25,2013-07-13 18:27:00,
2013-07-13 11:32:00,65.3,20.7,29.90,WNW,288,8.0,13.0,18,0.00,,,0.00,886,WeatherCatV1.15B25,2013-07-13 18:32:00,
2013-07-13 11:37:00,65.5,19.5,29.90,NW,308,6.0,12.0,17,0.00,,,0.00,895,WeatherCatV1.15B25,2013-07-13 18:37:00,
2013-07-13 11:42:00,65.5,19.5,29.90,NW,316,9.0,11.0,17,0.00,,,0.00,904,WeatherCatV1.15B25,2013-07-13 18:42:00,
2013-07-13 11:47:00,65.6,18.2,29.89,NW,310,8.0,15.0,16,0.00,,,0.00,912,WeatherCatV1.15B25,2013-07-13 18:47:00,
2013-07-13 11:52:00,65.6,18.2,29.89,WNW,303,7.0,12.0,16,0.00,,,0.00,918,WeatherCatV1.15B25,2013-07-13 18:52:00,
2013-07-13 11:57:00,65.6,18.2,29.89,West,272,8.0,14.0,16,0.00,,,0.00,925,WeatherCatV1.15B25,2013-07-13 18:57:00,
2013-07-13 12:02:00,65.8,19.8,29.89,West,268,5.0,10.0,17,0.00,,,0.00,926,WeatherCatV1.15B25,2013-07-13 19:02:00,
2013-07-13 12:07:00,66.1,23.9,29.89,West,266,2.0,9.0,20,0.00,,,0.00,932,WeatherCatV1.15B25,2013-07-13 19:07:00,
2013-07-13 12:12:00,66.6,21.8,29.89,West,260,5.0,10.0,18,0.00,,,0.00,937,WeatherCatV1.15B25,2013-07-13 19:12:00,
2013-07-13 12:17:00,66.8,23.2,29.87,North,1,2.0,14.0,19,0.00,,,0.00,944,WeatherCatV1.15B25,2013-07-13 19:17:00,
2013-07-13 12:22:00,67.6,23.9,29.87,WNW,288,12.0,12.0,19,0.00,,,0.00,949,WeatherCatV1.15B25,2013-07-13 19:22:00,
2013-07-13 12:28:00,67.8,20.0,29.87,NNW,345,11.0,15.0,16,0.00,,,0.00,953,WeatherCatV1.15B25,2013-07-13 19:28:00,
2013-07-13 12:33:00,67.6,21.2,29.85,NW,318,9.0,13.0,17,0.00,,,0.00,958,WeatherCatV1.15B25,2013-07-13 19:33:00,
2013-07-13 12:38:00,67.4,19.7,29.85,WNW,288,3.0,18.0,16,0.00,,,0.00,963,WeatherCatV1.15B25,2013-07-13 19:38:00,
2013-07-13 12:43:00,67.4,21.1,29.85,West,277,12.0,14.0,17,0.00,,,0.00,967,WeatherCatV1.15B25,2013-07-13 19:43:00,
2013-07-13 12:48:00,67.8,21.4,29.87,North,357,7.0,10.0,17,0.00,,,0.00,967,WeatherCatV1.15B25,2013-07-13 19:48:00,
2013-07-13 12:53:00,68.1,23.0,29.87,NW,320,3.0,11.0,18,0.00,,,0.00,970,WeatherCatV1.15B25,2013-07-13 19:53:00,
2013-07-13 12:58:00,68.8,22.2,29.87,West,273,2.0,12.0,17,0.00,,,0.00,974,WeatherCatV1.15B25,2013-07-13 19:58:00,
2013-07-13 13:03:00,68.4,20.5,29.85,WNW,299,14.0,18.0,16,0.00,,,0.00,974,WeatherCatV1.15B25,2013-07-13 20:03:00,
2013-07-13 13:08:00,68.1,21.6,29.85,NW,314,7.0,17.0,17,0.00,,,0.00,972,WeatherCatV1.15B25,2013-07-13 20:08:00,
2013-07-13 13:13:00,68.6,20.6,29.85,NW,312,6.0,17.0,16,0.00,,,0.00,976,WeatherCatV1.15B25,2013-07-13 20:13:00,
2013-07-13 13:18:00,68.4,21.9,29.85,West,277,3.0,13.0,17,0.00,,,0.00,972,WeatherCatV1.15B25,2013-07-13 20:18:00,
2013-07-13 13:23:00,68.4,23.2,29.85,West,274,4.0,14.0,18,0.00,,,0.00,972,WeatherCatV1.15B25,2013-07-13 20:23:00,
2013-07-13 13:28:00,68.4,24.5,29.85,West,274,7.0,14.0,19,0.00,,,0.00,972,WeatherCatV1.15B25,2013-07-13 20:28:00,
2013-07-13 13:33:00,68.8,23.6,29.87,West,260,14.0,16.0,18,0.00,,,0.00,970,WeatherCatV1.15B25,2013-07-13 20:33:00,
2013-07-13 13:38:00,68.9,24.9,29.87,WNW,283,8.0,9.0,19,0.00,,,0.00,969,WeatherCatV1.15B25,2013-07-13 20:38:00,
2013-07-13 13:43:00,69.3,22.6,29.87,NNW,345,10.0,13.0,17,0.00,,,0.00,967,WeatherCatV1.15B25,2013-07-13 20:43:00,
2013-07-13 13:48:00,69.3,25.3,29.85,South,187,4.0,15.0,19,0.00,,,0.00,965,WeatherCatV1.15B25,2013-07-13 20:48:00,
2013-07-13 13:53:00,68.9,23.7,29.85,NW,310,6.0,7.0,18,0.00,,,0.00,962,WeatherCatV1.15B25,2013-07-13 20:53:00,
2013-07-13 13:58:00,68.4,24.5,29.85,North,352,11.0,16.0,19,0.00,,,0.00,958,WeatherCatV1.15B25,2013-07-13 20:58:00,
2013-07-13 14:03:00,68.8,24.9,29.86,NW,313,6.0,14.0,19,0.00,,,0.00,956,WeatherCatV1.15B25,2013-07-13 21:03:00,
2013-07-13 14:08:00,69.4,26.6,29.86,WNW,293,5.0,13.0,20,0.00,,,0.00,949,WeatherCatV1.15B25,2013-07-13 21:08:00,
2013-07-13 14:13:00,69.6,25.5,29.86,NW,309,5.0,13.0,19,0.00,,,0.00,946,WeatherCatV1.15B25,2013-07-13 21:13:00,
2013-07-13 14:18:00,70.1,24.6,29.85,NW,316,12.0,17.0,18,0.00,,,0.00,940,WeatherCatV1.15B25,2013-07-13 21:18:00,
2013-07-13 14:23:00,70.1,24.6,29.85,NNW,336,0.0,10.0,18,0.00,,,0.00,935,WeatherCatV1.15B25,2013-07-13 21:23:00,
2013-07-13 14:28:00,70.6,26.3,29.85,NW,306,3.0,12.0,19,0.00,,,0.00,932,WeatherCatV1.15B25,2013-07-13 21:28:00,
2013-07-13 14:33:00,70.6,26.3,29.84,West,271,13.0,22.0,19,0.00,,,0.00,925,WeatherCatV1.15B25,2013-07-13 21:33:00,
2013-07-13 14:38:00,69.8,26.9,29.84,WNW,293,6.0,18.0,20,0.00,,,0.00,918,WeatherCatV1.15B25,2013-07-13 21:38:00,
2013-07-13 14:43:00,69.4,27.8,29.84,West,259,14.0,16.0,21,0.00,,,0.00,911,WeatherCatV1.15B25,2013-07-13 21:43:00,
2013-07-13 14:48:00,69.8,26.9,29.85,WSW,251,6.0,17.0,20,0.00,,,0.00,905,WeatherCatV1.15B25,2013-07-13 21:48:00,
2013-07-13 14:53:00,69.6,26.8,29.85,NNW,329,9.0,21.0,20,0.00,,,0.00,896,WeatherCatV1.15B25,2013-07-13 21:53:00,
2013-07-13 14:58:00,69.4,27.8,29.85,NW,305,10.0,20.0,21,0.00,,,0.00,889,WeatherCatV1.15B25,2013-07-13 21:58:00,
2013-07-13 15:03:00,69.6,27.9,29.84,WNW,298,17.0,18.0,21,0.00,,,0.00,879,WeatherCatV1.15B25,2013-07-13 22:03:00,
2013-07-13 15:08:00,69.8,28.1,29.84,North,359,8.0,15.0,21,0.00,,,0.00,872,WeatherCatV1.15B25,2013-07-13 22:08:00,
2013-07-13 15:13:00,69.8,28.1,29.84,WNW,288,14.0,17.0,21,0.00,,,0.00,865,WeatherCatV1.15B25,2013-07-13 22:13:00,
2013-07-13 15:18:00,69.6,29.1,29.84,NNW,347,14.0,23.0,22,0.00,,,0.00,858,WeatherCatV1.15B25,2013-07-13 22:18:00,
2013-07-13 15:23:00,69.6,29.1,29.84,NNW,329,9.0,16.0,22,0.00,,,0.00,849,WeatherCatV1.15B25,2013-07-13 22:23:00,
2013-07-13 15:28:00,70.1,29.5,29.84,NNW,347,5.0,17.0,22,0.00,,,0.00,838,WeatherCatV1.15B25,2013-07-13 22:28:00,
2013-07-13 15:33:00,70.3,29.7,29.84,West,275,8.0,16.0,22,0.00,,,0.00,826,WeatherCatV1.15B25,2013-07-13 22:33:00,
2013-07-13 15:38:00,69.9,29.3,29.84,West,276,13.0,16.0,22,0.00,,,0.00,817,WeatherCatV1.15B25,2013-07-13 22:38:00,
2013-07-13 15:43:00,69.9,30.4,29.84,WNW,297,6.0,15.0,23,0.00,,,0.00,809,WeatherCatV1.15B25,2013-07-13 22:43:00,
2013-07-13 15:48:00,70.3,30.7,29.84,WNW,297,6.0,15.0,23,0.00,,,0.00,796,WeatherCatV1.15B25,2013-07-13 22:48:00,
2013-07-13 15:53:00,69.9,30.4,29.84,NNW,327,18.0,19.0,23,0.00,,,0.00,786,WeatherCatV1.15B25,2013-07-13 22:53:00,
2013-07-13 15:58:00,69.8,30.3,29.84,NW,322,12.0,16.0,23,0.00,,,0.00,773,WeatherCatV1.15B25,2013-07-13 22:58:00,
2013-07-13 16:03:00,70.1,30.6,29.84,West,272,14.0,21.0,23,0.00,,,0.00,761,WeatherCatV1.15B25,2013-07-13 23:03:00,
2013-07-13 16:08:00,69.6,30.2,29.84,WNW,283,11.0,16.0,23,0.00,,,0.00,751,WeatherCatV1.15B25,2013-07-13 23:08:00,
2013-07-13 16:13:00,69.3,29.9,29.84,North,359,14.0,25.0,23,0.00,,,0.00,735,WeatherCatV1.15B25,2013-07-13 23:13:00,
2013-07-13 16:18:00,69.1,29.7,29.85,NW,324,11.0,16.0,23,0.00,,,0.00,726,WeatherCatV1.15B25,2013-07-13 23:18:00,
2013-07-13 16:23:00,70.1,30.6,29.85,NW,305,10.0,19.0,23,0.00,,,0.00,712,WeatherCatV1.15B25,2013-07-13 23:23:00,
2013-07-13 16:28:00,70.3,30.7,29.85,North,3,12.0,19.0,23,0.00,,,0.00,700,WeatherCatV1.15B25,2013-07-13 23:28:00,
2013-07-13 16:33:00,69.9,31.5,29.85,WNW,293,9.0,14.0,24,0.00,,,0.00,684,WeatherCatV1.15B25,2013-07-13 23:33:00,
2013-07-13 16:38:00,70.3,31.8,29.85,NW,314,9.0,19.0,24,0.00,,,0.00,671,WeatherCatV1.15B25,2013-07-13 23:38:00,
2013-07-13 16:43:00,69.4,32.0,29.85,WNW,288,13.0,18.0,25,0.00,,,0.00,657,WeatherCatV1.15B25,2013-07-13 23:43:00,
2013-07-13 16:48:00,69.3,31.0,29.85,North,355,6.0,18.0,24,0.00,,,0.00,642,WeatherCatV1.15B25,2013-07-13 23:48:00,
2013-07-13 16:53:00,69.8,31.4,29.85,WNW,288,13.0,18.0,24,0.00,,,0.00,631,WeatherCatV1.15B25,2013-07-13 23:53:00,
2013-07-13 16:58:00,69.8,31.4,29.85,NNW,339,9.0,20.0,24,0.00,,,0.00,617,WeatherCatV1.15B25,2013-07-13 23:58:00,
2013-07-13 17:03:00,69.4,32.0,29.85,WNW,288,16.0,22.0,25,0.00,,,0.00,599,WeatherCatV1.15B25,2013-07-14 00:03:00,
2013-07-13 17:08:00,69.1,31.8,29.85,NW,307,14.0,20.0,25,0.00,,,0.00,584,WeatherCatV1.15B25,2013-07-14 00:08:00,
2013-07-13 17:13:00,68.8,32.5,29.85,WNW,283,10.0,17.0,26,0.00,,,0.00,570,WeatherCatV1.15B25,2013-07-14 00:13:00,
2013-07-13 17:18:00,69.1,33.7,29.83,NW,314,18.0,20.0,27,0.00,,,0.00,554,WeatherCatV1.15B25,2013-07-14 00:18:00,
2013-07-13 17:23:00,68.8,32.5,29.83,WNW,288,16.0,23.0,26,0.00,,,0.00,538,WeatherCatV1.15B25,2013-07-14 00:23:00,
2013-07-13 17:28:00,68.4,32.2,29.83,NW,312,12.0,25.0,26,0.00,,,0.00,526,WeatherCatV1.15B25,2013-07-14 00:28:00,
2013-07-13 17:33:00,68.4,33.1,29.84,WNW,293,11.0,17.0,27,0.00,,,0.00,510,WeatherCatV1.15B25,2013-07-14 00:33:00,
2013-07-13 17:38:00,68.6,33.3,29.84,WNW,297,13.0,18.0,27,0.00,,,0.00,494,WeatherCatV1.15B25,2013-07-14 00:38:00,
2013-07-13 17:43:00,68.6,33.3,29.84,WNW,293,7.0,19.0,27,0.00,,,0.00,476,WeatherCatV1.15B25,2013-07-14 00:43:00,
2013-07-13 17:48:00,68.6,34.2,29.82,NW,313,18.0,23.0,28,0.00,,,0.00,464,WeatherCatV1.15B25,2013-07-14 00:48:00,
2013-07-13 17:53:00,68.1,32.9,29.82,NW,317,20.0,23.0,27,0.00,,,0.00,446,WeatherCatV1.15B25,2013-07-14 00:53:00,
2013-07-13 17:58:00,67.9,33.6,29.82,NW,309,13.0,20.0,28,0.00,,,0.00,429,WeatherCatV1.15B25,2013-07-14 00:58:00,
2013-07-13 18:03:00,68.3,33.9,29.84,WNW,297,13.0,15.0,28,0.00,,,0.00,413,WeatherCatV1.15B25,2013-07-14 01:03:00,
2013-07-13 18:08:00,68.4,33.1,29.84,WNW,293,14.0,22.0,27,0.00,,,0.00,401,WeatherCatV1.15B25,2013-07-14 01:08:00,
2013-07-13 18:13:00,68.3,33.9,29.84,WNW,283,16.0,17.0,28,0.00,,,0.00,381,WeatherCatV1.15B25,2013-07-14 01:13:00,
2013-07-13 18:18:00,68.3,33.0,29.84,NW,311,15.0,19.0,27,0.00,,,0.00,366,WeatherCatV1.15B25,2013-07-14 01:18:00,
2013-07-13 18:23:00,68.1,33.8,29.84,WNW,288,14.0,16.0,28,0.00,,,0.00,348,WeatherCatV1.15B25,2013-07-14 01:23:00,
2013-07-13 18:28:00,68.1,33.8,29.84,WNW,288,7.0,17.0,28,0.00,,,0.00,329,WeatherCatV1.15B25,2013-07-14 01:28:00,
2013-07-13 18:33:00,67.9,34.5,29.84,NW,308,16.0,16.0,29,0.00,,,0.00,313,WeatherCatV1.15B25,2013-07-14 01:33:00,
2013-07-13 18:38:00,67.8,33.5,29.84,West,272,12.0,18.0,28,0.00,,,0.00,299,WeatherCatV1.15B25,2013-07-14 01:38:00,
2013-07-13 18:43:00,67.4,34.9,29.84,NW,310,6.0,11.0,30,0.00,,,0.00,281,WeatherCatV1.15B25,2013-07-14 01:43:00,
2013-07-13 18:48:00,67.3,33.9,29.85,North,356,11.0,23.0,29,0.00,,,0.00,264,WeatherCatV1.15B25,2013-07-14 01:48:00,
2013-07-13 18:53:00,66.6,34.2,29.85,NW,323,13.0,21.0,30,0.00,,,0.00,246,WeatherCatV1.15B25,2013-07-14 01:53:00,
2013-07-13 18:58:00,66.3,35.6,29.85,West,276,16.0,18.0,32,0.00,,,0.00,230,WeatherCatV1.15B25,2013-07-14 01:58:00,
2013-07-13 19:03:00,66.0,34.5,29.86,WNW,303,16.0,16.0,31,0.00,,,0.00,213,WeatherCatV1.15B25,2013-07-14 02:03:00,
2013-07-13 19:09:00,65.6,34.1,29.86,West,279,13.0,20.0,31,0.00,,,0.00,193,WeatherCatV1.15B25,2013-07-14 02:09:00,
2013-07-13 19:14:00,65.5,33.2,29.86,NW,306,15.0,21.0,30,0.00,,,0.00,176,WeatherCatV1.15B25,2013-07-14 02:14:00,
2013-07-13 19:19:00,65.2,33.8,29.85,WNW,303,10.0,15.0,31,0.00,,,0.00,163,WeatherCatV1.15B25,2013-07-14 02:19:00,
2013-07-13 19:24:00,65.2,33.8,29.85,WNW,301,11.0,15.0,31,0.00,,,0.00,148,WeatherCatV1.15B25,2013-07-14 02:24:00,
2013-07-13 19:29:00,65.0,34.4,29.87,WNW,293,10.0,17.0,32,0.00,,,0.00,132,WeatherCatV1.15B25,2013-07-14 02:29:00,
2013-07-13 19:34:00,64.7,34.9,29.87,NW,314,14.0,18.0,33,0.00,,,0.00,116,WeatherCatV1.15B25,2013-07-14 02:34:00,
2013-07-13 19:39:00,64.5,35.5,29.87,WNW,283,14.0,15.0,34,0.00,,,0.00,102,WeatherCatV1.15B25,2013-07-14 02:39:00,
2013-07-13 19:44:00,64.2,35.2,29.88,NW,316,10.0,13.0,34,0.00,,,0.00,51,WeatherCatV1.15B25,2013-07-14 02:44:00,
2013-07-13 19:49:00,64.0,35.8,29.88,WNW,299,10.0,16.0,35,0.00,,,0.00,21,WeatherCatV1.15B25,2013-07-14 02:49:00,
2013-07-13 19:54:00,63.9,35.7,29.88,West,266,6.0,18.0,35,0.00,,,0.00,21,WeatherCatV1.15B25,2013-07-14 02:54:00,
2013-07-13 19:59:00,63.5,36.1,29.88,NW,312,14.0,15.0,36,0.00,,,0.00,18,WeatherCatV1.15B25,2013-07-14 02:59:00,
2013-07-13 20:04:00,63.2,36.5,29.88,NW,314,10.0,14.0,37,0.00,,,0.00,16,WeatherCatV1.15B25,2013-07-14 03:04:00,
2013-07-13 20:09:00,62.9,37.6,29.88,NNW,344,5.0,14.0,39,0.00,,,0.00,12,WeatherCatV1.15B25,2013-07-14 03:09:00,
2013-07-13 20:14:00,62.6,37.9,29.88,NW,314,12.0,16.0,40,0.00,,,0.00,14,WeatherCatV1.15B25,2013-07-14 03:14:00,
2013-07-13 20:19:00,62.3,37.0,29.86,WNW,293,10.0,13.0,39,0.00,,,0.00,11,WeatherCatV1.15B25,2013-07-14 03:19:00,
2013-07-13 20:24:00,62.0,36.8,29.86,WNW,293,6.0,18.0,39,0.00,,,0.00,5,WeatherCatV1.15B25,2013-07-14 03:24:00,
2013-07-13 20:29:00,61.6,37.0,29.86,West,270,14.0,15.0,40,0.00,,,0.00,0,WeatherCatV1.15B25,2013-07-14 03:29:00,
2013-07-13 20:34:00,61.3,37.4,29.85,NNW,330,6.0,12.0,41,0.00,,,0.00,0,WeatherCatV1.15B25,2013-07-14 03:34:00,
2013-07-13 20:39:00,61.0,37.7,29.85,WNW,293,10.0,12.0,42,0.00,,,0.00,0,WeatherCatV1.15B25,2013-07-14 03:39:00,
2013-07-13 20:44:00,60.9,37.7,29.85,NW,307,11.0,12.0,42,0.00,,,0.00,0,WeatherCatV1.15B25,2013-07-14 03:44:00,
2013-07-13 20:49:00,60.7,38.7,29.86,NW,304,12.0,14.0,44,0.00,,,0.00,0,WeatherCatV1.15B25,2013-07-14 03:49:00,
2013-07-13 20:54:00,60.4,38.4,29.86,NW,313,6.0,13.0,44,0.00,,,0.00,0,WeatherCatV1.15B25,2013-07-14 03:54:00,
2013-07-13 20:59:00,60.2,38.2,29.86,NW,305,8.0,11.0,44,0.00,,,0.00,0,WeatherCatV1.15B25,2013-07-14 03:59:00,
2013-07-13 21:01:00,60.2,37.6,29.87,NW,312,7.0,13.0,43,0.00,,,0.00,0,WeatherCatV1.15B25,2013-07-14 04:01:00,
2013-07-13 21:02:00,60.2,37.6,29.87,NW,313,7.0,13.0,43,0.00,,,0.00,0,WeatherCatV1.15B25,2013-07-14 04:02:00,
2013-07-13 21:04:00,60.2,37.6,29.87,WNW,293,13.0,13.0,43,0.00,,,0.00,0,WeatherCatV1.15B25,2013-07-14 04:04:00,
2013-07-13 21:09:00,60.1,36.9,29.87,WNW,293,11.0,15.0,42,0.00,,,0.00,0,WeatherCatV1.15B25,2013-07-14 04:09:00,
2013-07-13 21:10:00,60.1,37.5,29.87,WNW,293,12.0,15.0,43,0.00,,,0.00,0,WeatherCatV1.15B25,2013-07-14 04:10:00,
2013-07-13 21:12:00,60.1,37.5,29.87,WNW,293,14.0,14.0,43,0.00,,,0.00,0,WeatherCatV1.15B25,2013-07-14 04:12:00,
2013-07-13 21:17:00,60.1,36.9,29.86,WNW,299,8.0,12.0,42,0.00,,,0.00,0,WeatherCatV1.15B25,2013-07-14 04:17:00,
2013-07-13 21:22:00,60.1,36.3,29.86,NW,312,5.0,14.0,41,0.00,,,0.00,0,WeatherCatV1.15B25,2013-07-14 04:22:00,
2013-07-13 21:27:00,59.9,36.1,29.86,NW,310,10.0,13.0,41,0.00,,,0.00,0,WeatherCatV1.15B25,2013-07-14 04:27:00,
2013-07-13 21:32:00,59.8,36.1,29.86,WNW,293,14.0,14.0,41,0.00,,,0.00,0,WeatherCatV1.15B25,2013-07-14 04:32:00,
2013-07-13 21:37:00,59.8,35.4,29.86,NW,307,10.0,14.0,40,0.00,,,0.00,0,WeatherCatV1.15B25,2013-07-14 04:37:00,
2013-07-13 21:42:00,59.6,35.2,29.86,WNW,293,6.0,7.0,40,0.00,,,0.00,0,WeatherCatV1.15B25,2013-07-14 04:42:00,
2013-07-13 21:47:00,59.5,35.2,29.87,NW,306,7.0,11.0,40,0.00,,,0.00,0,WeatherCatV1.15B25,2013-07-14 04:47:00,
2013-07-13 21:52:00,59.5,35.2,29.87,NW,314,6.0,7.0,40,0.00,,,0.00,0,WeatherCatV1.15B25,2013-07-14 04:52:00,
2013-07-13 21:57:00,59.3,35.0,29.87,NW,306,10.0,12.0,40,0.00,,,0.00,0,WeatherCatV1.15B25,2013-07-14 04:57:00,
2013-07-13 22:02:00,59.2,35.5,29.89,NW,318,11.0,12.0,41,0.00,,,0.00,0,WeatherCatV1.15B25,2013-07-14 05:02:00,
2013-07-13 22:07:00,59.0,35.3,29.89,NW,314,7.0,10.0,41,0.00,,,0.00,0,WeatherCatV1.15B25,2013-07-14 05:07:00,
2013-07-13 22:12:00,58.7,35.1,29.89,NW,324,4.0,9.0,41,0.00,,,0.00,0,WeatherCatV1.15B25,2013-07-14 05:12:00,
2013-07-13 22:17:00,58.6,35.0,29.87,NW,307,3.0,7.0,41,0.00,,,0.00,0,WeatherCatV1.15B25,2013-07-14 05:17:00,
2013-07-13 22:22:00,58.4,34.8,29.87,WNW,300,5.0,8.0,41,0.00,,,0.00,0,WeatherCatV1.15B25,2013-07-14 05:22:00,
2013-07-13 22:27:00,58.3,34.7,29.87,NW,317,6.0,12.0,41,0.00,,,0.00,0,WeatherCatV1.15B25,2013-07-14 05:27:00,
2013-07-13 22:32:00,58.3,34.7,29.87,NW,305,7.0,10.0,41,0.00,,,0.00,0,WeatherCatV1.15B25,2013-07-14 05:32:00,
2013-07-13 22:37:00,58.1,35.1,29.87,NW,318,8.0,9.0,42,0.00,,,0.00,0,WeatherCatV1.15B25,2013-07-14 05:37:00,
2013-07-13 22:42:00,58.3,34.7,29.87,WNW,300,7.0,11.0,41,0.00,,,0.00,0,WeatherCatV1.15B25,2013-07-14 05:42:00,
2013-07-13 22:47:00,58.4,34.8,29.87,NW,317,6.0,9.0,41,0.00,,,0.00,0,WeatherCatV1.15B25,2013-07-14 05:47:00,
2013-07-13 22:52:00,58.4,34.8,29.87,WNW,303,6.0,9.0,41,0.00,,,0.00,0,WeatherCatV1.15B25,2013-07-14 05:52:00,
2013-07-13 22:57:00,58.4,34.8,29.87,WNW,303,3.0,10.0,41,0.00,,,0.00,0,WeatherCatV1.15B25,2013-07-14 05:57:00,
2013-07-13 23:02:00,58.4,34.8,29.88,NW,309,4.0,5.0,41,0.00,,,0.00,0,WeatherCatV1.15B25,2013-07-14 06:02:00,
2013-07-13 23:07:00,58.3,34.7,29.88,WNW,302,5.0,5.0,41,0.00,,,0.00,0,WeatherCatV1.15B25,2013-07-14 06:07:00,
2013-07-13 23:12:00,58.1,34.5,29.88,NW,313,6.0,9.0,41,0.00,,,0.00,0,WeatherCatV1.15B25,2013-07-14 06:12:00,
2013-07-13 23:17:00,58.1,34.5,29.86,NW,305,7.0,8.0,41,0.00,,,0.00,0,WeatherCatV1.15B25,2013-07-14 06:17:00,
2013-07-13 23:22:00,58.3,34.7,29.86,NW,311,5.0,7.0,41,0.00,,,0.00,0,WeatherCatV1.15B25,2013-07-14 06:22:00,
2013-07-13 23:27:00,58.1,34.5,29.86,WNW,293,6.0,7.0,41,0.00,,,0.00,0,WeatherCatV1.15B25,2013-07-14 06:27:00,
2013-07-13 23:32:00,58.1,34.5,29.86,NW,308,7.0,8.0,41,0.00,,,0.00,0,WeatherCatV1.15B25,2013-07-14 06:32:00,
2013-07-13 23:37:00,58.1,34.5,29.86,NW,318,0.0,4.0,41,0.00,,,0.00,0,WeatherCatV1.15B25,2013-07-14 06:37:00,
2013-07-13 23:42:00,58.0,34.4,29.86,NW,318,0.0,6.0,41,0.00,,,0.00,0,WeatherCatV1.15B25,2013-07-14 06:42:00,
2013-07-13 23:47:00,57.8,34.9,29.87,NNW,329,6.0,6.0,42,0.00,,,0.00,0,WeatherCatV1.15B25,2013-07-14 06:47:00,
2013-07-13 23:52:00,57.8,34.9,29.87,NW,308,2.0,4.0,42,0.00,,,0.00,0,WeatherCatV1.15B25,2013-07-14 06:52:00,
2013-07-13 23:57:00,57.6,34.7,29.87,NW,309,4.0,7.0,42,0.00,,,0.00,0,WeatherCatV1.15B25,2013-07-14 06:57:00,